sensor_id;sensor_type;location;lat;lon;timestamp;P1;durP1;ratioP1;P2;durP2;ratioP2
32186;SDS011;18686;53.084;8.872;2022-11-11T00:01:09;7.70;;;2.47;;
32186;SDS011;18686;53.084;8.872;2022-11-11T00:03:58;12.80;;;2.38;;
32186;SDS011;18686;53.084;8.872;2022-11-11T00:06:45;9.13;;;2.08;;
32186;SDS011;18686;53.084;8.872;2022-11-11T00:09:32;8.05;;;2.30;;
32186;SDS011;18686;53.084;8.872;2022-11-11T00:12:19;13.80;;;2.58;;
32186;SDS011;18686;53.084;8.872;2022-11-11T00:15:12;8.13;;;2.85;;
32186;SDS011;18686;53.084;8.872;2022-11-11T00:17:59;10.50;;;2.47;;
32186;SDS011;18686;53.084;8.872;2022-11-11T00:21:03;8.60;;;2.45;;
32186;SDS011;18686;53.084;8.872;2022-11-11T00:24:15;9.53;;;3.03;;
32186;SDS011;18686;53.084;8.872;2022-11-11T00:27:23;6.32;;;2.30;;
32186;SDS011;18686;53.084;8.872;2022-11-11T00:30:10;6.68;;;2.40;;
32186;SDS011;18686;53.084;8.872;2022-11-11T00:32:58;8.32;;;2.40;;
32186;SDS011;18686;53.084;8.872;2022-11-11T00:35:45;9.27;;;2.75;;
32186;SDS011;18686;53.084;8.872;2022-11-11T00:38:38;11.40;;;2.65;;
32186;SDS011;18686;53.084;8.872;2022-11-11T00:41:33;5.60;;;2.30;;
32186;SDS011;18686;53.084;8.872;2022-11-11T00:44:20;7.53;;;2.63;;
32186;SDS011;18686;53.084;8.872;2022-11-11T00:47:07;5.82;;;2.47;;
32186;SDS011;18686;53.084;8.872;2022-11-11T00:50:14;7.82;;;2.42;;
32186;SDS011;18686;53.084;8.872;2022-11-11T00:53:19;8.13;;;2.40;;
32186;SDS011;18686;53.084;8.872;2022-11-11T00:56:10;9.48;;;2.60;;
32186;SDS011;18686;53.084;8.872;2022-11-11T00:58:57;9.50;;;2.60;;
32186;SDS011;18686;53.084;8.872;2022-11-11T01:01:44;13.27;;;3.85;;
32186;SDS011;18686;53.084;8.872;2022-11-11T01:04:31;15.13;;;3.40;;
32186;SDS011;18686;53.084;8.872;2022-11-11T01:07:20;10.00;;;2.88;;
32186;SDS011;18686;53.084;8.872;2022-11-11T01:10:07;10.55;;;2.90;;
32186;SDS011;18686;53.084;8.872;2022-11-11T01:12:54;10.57;;;3.30;;
32186;SDS011;18686;53.084;8.872;2022-11-11T01:15:57;13.05;;;3.10;;
32186;SDS011;18686;53.084;8.872;2022-11-11T01:18:46;13.50;;;3.30;;
32186;SDS011;18686;53.084;8.872;2022-11-11T01:21:33;7.97;;;3.13;;
32186;SDS011;18686;53.084;8.872;2022-11-11T01:24:22;10.63;;;3.15;;
32186;SDS011;18686;53.084;8.872;2022-11-11T01:27:09;10.00;;;3.33;;
32186;SDS011;18686;53.084;8.872;2022-11-11T01:29:55;8.95;;;3.15;;
32186;SDS011;18686;53.084;8.872;2022-11-11T01:32:42;9.85;;;3.17;;
32186;SDS011;18686;53.084;8.872;2022-11-11T01:35:30;10.65;;;3.50;;
32186;SDS011;18686;53.084;8.872;2022-11-11T01:38:17;12.27;;;3.72;;
32186;SDS011;18686;53.084;8.872;2022-11-11T01:41:06;12.48;;;3.80;;
32186;SDS011;18686;53.084;8.872;2022-11-11T01:44:18;8.95;;;3.22;;
32186;SDS011;18686;53.084;8.872;2022-11-11T01:47:25;10.10;;;3.10;;
32186;SDS011;18686;53.084;8.872;2022-11-11T01:50:52;10.48;;;3.53;;
32186;SDS011;18686;53.084;8.872;2022-11-11T01:53:40;12.32;;;4.10;;
32186;SDS011;18686;53.084;8.872;2022-11-11T01:56:29;6.95;;;2.85;;
32186;SDS011;18686;53.084;8.872;2022-11-11T01:59:16;11.75;;;3.42;;
32186;SDS011;18686;53.084;8.872;2022-11-11T02:02:04;12.85;;;4.35;;
32186;SDS011;18686;53.084;8.872;2022-11-11T02:04:58;12.40;;;3.53;;
32186;SDS011;18686;53.084;8.872;2022-11-11T02:08:06;8.60;;;3.45;;
32186;SDS011;18686;53.084;8.872;2022-11-11T02:10:57;10.55;;;3.58;;
32186;SDS011;18686;53.084;8.872;2022-11-11T02:13:47;12.45;;;4.05;;
32186;SDS011;18686;53.084;8.872;2022-11-11T02:16:59;11.05;;;3.65;;
32186;SDS011;18686;53.084;8.872;2022-11-11T02:19:49;9.30;;;3.67;;
32186;SDS011;18686;53.084;8.872;2022-11-11T02:22:41;10.60;;;3.95;;
32186;SDS011;18686;53.084;8.872;2022-11-11T02:25:35;9.23;;;3.60;;
32186;SDS011;18686;53.084;8.872;2022-11-11T02:28:25;9.68;;;3.88;;
32186;SDS011;18686;53.084;8.872;2022-11-11T02:31:13;8.73;;;3.58;;
32186;SDS011;18686;53.084;8.872;2022-11-11T02:34:00;14.20;;;4.75;;
32186;SDS011;18686;53.084;8.872;2022-11-11T02:36:47;8.93;;;3.53;;
32186;SDS011;18686;53.084;8.872;2022-11-11T02:39:34;11.52;;;4.20;;
32186;SDS011;18686;53.084;8.872;2022-11-11T02:42:47;14.82;;;4.63;;
32186;SDS011;18686;53.084;8.872;2022-11-11T02:45:34;14.68;;;4.22;;
32186;SDS011;18686;53.084;8.872;2022-11-11T02:48:21;11.05;;;4.03;;
32186;SDS011;18686;53.084;8.872;2022-11-11T02:51:09;15.55;;;4.78;;
32186;SDS011;18686;53.084;8.872;2022-11-11T02:53:57;17.10;;;4.10;;
32186;SDS011;18686;53.084;8.872;2022-11-11T02:56:47;10.32;;;3.90;;
32186;SDS011;18686;53.084;8.872;2022-11-11T02:59:54;8.25;;;3.78;;
32186;SDS011;18686;53.084;8.872;2022-11-11T03:02:42;13.43;;;4.30;;
32186;SDS011;18686;53.084;8.872;2022-11-11T03:05:30;15.82;;;4.43;;
32186;SDS011;18686;53.084;8.872;2022-11-11T03:08:17;10.18;;;3.80;;
32186;SDS011;18686;53.084;8.872;2022-11-11T03:11:03;11.95;;;4.25;;
32186;SDS011;18686;53.084;8.872;2022-11-11T03:13:50;11.05;;;3.67;;
32186;SDS011;18686;53.084;8.872;2022-11-11T03:16:39;12.82;;;3.97;;
32186;SDS011;18686;53.084;8.872;2022-11-11T03:19:43;13.05;;;4.28;;
32186;SDS011;18686;53.084;8.872;2022-11-11T03:22:30;14.93;;;3.80;;
32186;SDS011;18686;53.084;8.872;2022-11-11T03:25:36;13.25;;;4.13;;
32186;SDS011;18686;53.084;8.872;2022-11-11T03:28:24;10.75;;;4.10;;
32186;SDS011;18686;53.084;8.872;2022-11-11T03:31:11;11.60;;;4.35;;
32186;SDS011;18686;53.084;8.872;2022-11-11T03:34:00;10.95;;;4.07;;
32186;SDS011;18686;53.084;8.872;2022-11-11T03:37:00;8.10;;;3.92;;
32186;SDS011;18686;53.084;8.872;2022-11-11T03:40:05;10.10;;;3.77;;
32186;SDS011;18686;53.084;8.872;2022-11-11T03:42:53;8.30;;;4.03;;
32186;SDS011;18686;53.084;8.872;2022-11-11T03:45:48;10.30;;;4.32;;
32186;SDS011;18686;53.084;8.872;2022-11-11T03:48:35;9.30;;;4.30;;
32186;SDS011;18686;53.084;8.872;2022-11-11T03:51:23;9.35;;;4.55;;
32186;SDS011;18686;53.084;8.872;2022-11-11T03:54:10;10.15;;;4.32;;
32186;SDS011;18686;53.084;8.872;2022-11-11T03:56:57;11.02;;;4.50;;
32186;SDS011;18686;53.084;8.872;2022-11-11T03:59:58;10.73;;;4.75;;
32186;SDS011;18686;53.084;8.872;2022-11-11T04:02:44;14.25;;;4.68;;
32186;SDS011;18686;53.084;8.872;2022-11-11T04:05:49;12.43;;;5.05;;
32186;SDS011;18686;53.084;8.872;2022-11-11T04:08:55;15.07;;;4.32;;
32186;SDS011;18686;53.084;8.872;2022-11-11T04:11:59;9.60;;;4.10;;
32186;SDS011;18686;53.084;8.872;2022-11-11T04:14:46;12.32;;;4.95;;
32186;SDS011;18686;53.084;8.872;2022-11-11T04:17:50;17.40;;;4.90;;
32186;SDS011;18686;53.084;8.872;2022-11-11T04:20:37;14.10;;;5.50;;
32186;SDS011;18686;53.084;8.872;2022-11-11T04:23:41;11.77;;;4.40;;
32186;SDS011;18686;53.084;8.872;2022-11-11T04:26:29;8.50;;;4.55;;
32186;SDS011;18686;53.084;8.872;2022-11-11T04:29:15;11.27;;;4.60;;
32186;SDS011;18686;53.084;8.872;2022-11-11T04:32:14;10.05;;;4.97;;
32186;SDS011;18686;53.084;8.872;2022-11-11T04:35:19;11.00;;;4.18;;
32186;SDS011;18686;53.084;8.872;2022-11-11T04:38:08;11.65;;;5.40;;
32186;SDS011;18686;53.084;8.872;2022-11-11T04:41:12;13.67;;;4.80;;
32186;SDS011;18686;53.084;8.872;2022-11-11T04:44:00;13.50;;;4.72;;
32186;SDS011;18686;53.084;8.872;2022-11-11T04:47:04;9.02;;;4.50;;
32186;SDS011;18686;53.084;8.872;2022-11-11T04:49:51;12.73;;;4.78;;
32186;SDS011;18686;53.084;8.872;2022-11-11T04:52:38;9.70;;;4.45;;
32186;SDS011;18686;53.084;8.872;2022-11-11T04:55:24;12.73;;;5.03;;
32186;SDS011;18686;53.084;8.872;2022-11-11T04:58:29;10.95;;;4.53;;
32186;SDS011;18686;53.084;8.872;2022-11-11T05:01:19;11.25;;;4.72;;
32186;SDS011;18686;53.084;8.872;2022-11-11T05:04:20;12.90;;;4.80;;
32186;SDS011;18686;53.084;8.872;2022-11-11T05:07:06;10.85;;;4.03;;
32186;SDS011;18686;53.084;8.872;2022-11-11T05:10:11;16.45;;;5.43;;
32186;SDS011;18686;53.084;8.872;2022-11-11T05:12:57;18.63;;;5.78;;
32186;SDS011;18686;53.084;8.872;2022-11-11T05:16:03;12.88;;;5.50;;
32186;SDS011;18686;53.084;8.872;2022-11-11T05:19:09;12.23;;;5.00;;
32186;SDS011;18686;53.084;8.872;2022-11-11T05:22:15;11.43;;;5.43;;
32186;SDS011;18686;53.084;8.872;2022-11-11T05:25:07;13.10;;;5.30;;
32186;SDS011;18686;53.084;8.872;2022-11-11T05:28:09;9.95;;;4.65;;
32186;SDS011;18686;53.084;8.872;2022-11-11T05:30:56;12.30;;;6.05;;
32186;SDS011;18686;53.084;8.872;2022-11-11T05:33:42;8.60;;;5.15;;
32186;SDS011;18686;53.084;8.872;2022-11-11T05:36:30;12.48;;;5.60;;
32186;SDS011;18686;53.084;8.872;2022-11-11T05:39:17;11.95;;;5.45;;
32186;SDS011;18686;53.084;8.872;2022-11-11T05:42:04;12.70;;;5.85;;
32186;SDS011;18686;53.084;8.872;2022-11-11T05:44:51;16.13;;;6.10;;
32186;SDS011;18686;53.084;8.872;2022-11-11T05:47:38;12.10;;;6.32;;
32186;SDS011;18686;53.084;8.872;2022-11-11T05:50:24;11.43;;;6.65;;
32186;SDS011;18686;53.084;8.872;2022-11-11T05:53:12;16.85;;;7.75;;
32186;SDS011;18686;53.084;8.872;2022-11-11T05:56:00;18.45;;;7.65;;
32186;SDS011;18686;53.084;8.872;2022-11-11T05:58:47;13.60;;;7.53;;
32186;SDS011;18686;53.084;8.872;2022-11-11T06:01:34;11.57;;;7.43;;
32186;SDS011;18686;53.084;8.872;2022-11-11T06:04:22;12.25;;;7.18;;
32186;SDS011;18686;53.084;8.872;2022-11-11T06:07:10;12.68;;;7.60;;
32186;SDS011;18686;53.084;8.872;2022-11-11T06:09:58;13.02;;;7.53;;
32186;SDS011;18686;53.084;8.872;2022-11-11T06:12:58;16.33;;;7.20;;
32186;SDS011;18686;53.084;8.872;2022-11-11T06:15:51;14.70;;;8.70;;
32186;SDS011;18686;53.084;8.872;2022-11-11T06:18:38;22.08;;;8.65;;
32186;SDS011;18686;53.084;8.872;2022-11-11T06:21:24;16.05;;;7.50;;
32186;SDS011;18686;53.084;8.872;2022-11-11T06:24:11;15.98;;;8.60;;
32186;SDS011;18686;53.084;8.872;2022-11-11T06:26:59;14.27;;;8.13;;
32186;SDS011;18686;53.084;8.872;2022-11-11T06:29:46;15.38;;;9.20;;
32186;SDS011;18686;53.084;8.872;2022-11-11T06:32:33;12.60;;;7.68;;
32186;SDS011;18686;53.084;8.872;2022-11-11T06:35:20;15.02;;;7.93;;
32186;SDS011;18686;53.084;8.872;2022-11-11T06:38:06;17.45;;;8.68;;
32186;SDS011;18686;53.084;8.872;2022-11-11T06:40:53;15.70;;;8.95;;
32186;SDS011;18686;53.084;8.872;2022-11-11T06:43:42;13.05;;;7.65;;
32186;SDS011;18686;53.084;8.872;2022-11-11T06:46:29;12.63;;;8.65;;
32186;SDS011;18686;53.084;8.872;2022-11-11T06:49:16;16.02;;;8.48;;
32186;SDS011;18686;53.084;8.872;2022-11-11T06:52:03;15.48;;;8.70;;
32186;SDS011;18686;53.084;8.872;2022-11-11T06:54:50;15.48;;;9.07;;
32186;SDS011;18686;53.084;8.872;2022-11-11T06:57:37;16.27;;;9.02;;
32186;SDS011;18686;53.084;8.872;2022-11-11T07:00:26;18.00;;;9.63;;
32186;SDS011;18686;53.084;8.872;2022-11-11T07:03:14;18.55;;;8.73;;
32186;SDS011;18686;53.084;8.872;2022-11-11T07:06:08;13.75;;;9.10;;
32186;SDS011;18686;53.084;8.872;2022-11-11T07:08:56;15.00;;;9.05;;
32186;SDS011;18686;53.084;8.872;2022-11-11T07:11:43;18.15;;;8.70;;
32186;SDS011;18686;53.084;8.872;2022-11-11T07:14:29;16.00;;;8.88;;
32186;SDS011;18686;53.084;8.872;2022-11-11T07:17:18;18.73;;;8.88;;
32186;SDS011;18686;53.084;8.872;2022-11-11T07:20:05;16.30;;;9.82;;
32186;SDS011;18686;53.084;8.872;2022-11-11T07:22:53;16.90;;;9.88;;
32186;SDS011;18686;53.084;8.872;2022-11-11T07:25:40;21.00;;;10.23;;
32186;SDS011;18686;53.084;8.872;2022-11-11T07:28:29;20.50;;;10.05;;
32186;SDS011;18686;53.084;8.872;2022-11-11T07:31:16;16.27;;;9.70;;
32186;SDS011;18686;53.084;8.872;2022-11-11T07:34:04;16.85;;;10.40;;
32186;SDS011;18686;53.084;8.872;2022-11-11T07:36:51;16.67;;;9.90;;
32186;SDS011;18686;53.084;8.872;2022-11-11T07:39:37;18.50;;;10.57;;
32186;SDS011;18686;53.084;8.872;2022-11-11T07:42:24;19.48;;;10.23;;
32186;SDS011;18686;53.084;8.872;2022-11-11T07:45:16;16.75;;;10.27;;
32186;SDS011;18686;53.084;8.872;2022-11-11T07:48:03;18.40;;;10.57;;
32186;SDS011;18686;53.084;8.872;2022-11-11T07:50:51;24.45;;;11.32;;
32186;SDS011;18686;53.084;8.872;2022-11-11T07:53:38;16.30;;;10.00;;
32186;SDS011;18686;53.084;8.872;2022-11-11T07:56:25;17.88;;;9.45;;
32186;SDS011;18686;53.084;8.872;2022-11-11T07:59:13;16.92;;;9.48;;
32186;SDS011;18686;53.084;8.872;2022-11-11T08:01:59;21.52;;;10.05;;
32186;SDS011;18686;53.084;8.872;2022-11-11T08:04:47;17.05;;;9.45;;
32186;SDS011;18686;53.084;8.872;2022-11-11T08:07:41;13.23;;;9.95;;
32186;SDS011;18686;53.084;8.872;2022-11-11T08:10:28;16.95;;;9.02;;
32186;SDS011;18686;53.084;8.872;2022-11-11T08:13:14;15.77;;;10.45;;
32186;SDS011;18686;53.084;8.872;2022-11-11T08:16:18;17.65;;;10.10;;
32186;SDS011;18686;53.084;8.872;2022-11-11T08:19:05;21.77;;;11.23;;
32186;SDS011;18686;53.084;8.872;2022-11-11T08:21:52;18.60;;;9.80;;
32186;SDS011;18686;53.084;8.872;2022-11-11T08:24:40;16.63;;;9.35;;
32186;SDS011;18686;53.084;8.872;2022-11-11T08:27:48;18.38;;;10.00;;
32186;SDS011;18686;53.084;8.872;2022-11-11T08:30:35;17.88;;;9.93;;
32186;SDS011;18686;53.084;8.872;2022-11-11T08:33:21;19.85;;;11.10;;
32186;SDS011;18686;53.084;8.872;2022-11-11T08:36:18;21.98;;;9.80;;
32186;SDS011;18686;53.084;8.872;2022-11-11T08:39:07;15.75;;;9.55;;
32186;SDS011;18686;53.084;8.872;2022-11-11T08:41:57;14.85;;;9.25;;
32186;SDS011;18686;53.084;8.872;2022-11-11T08:44:44;20.58;;;10.45;;
32186;SDS011;18686;53.084;8.872;2022-11-11T08:47:32;22.02;;;12.23;;
32186;SDS011;18686;53.084;8.872;2022-11-11T08:50:18;20.88;;;10.65;;
32186;SDS011;18686;53.084;8.872;2022-11-11T08:53:06;18.38;;;10.15;;
32186;SDS011;18686;53.084;8.872;2022-11-11T08:55:54;15.77;;;9.95;;
32186;SDS011;18686;53.084;8.872;2022-11-11T08:58:42;22.45;;;11.00;;
32186;SDS011;18686;53.084;8.872;2022-11-11T09:01:29;16.25;;;10.82;;
32186;SDS011;18686;53.084;8.872;2022-11-11T09:04:16;20.77;;;11.10;;
32186;SDS011;18686;53.084;8.872;2022-11-11T09:07:23;17.98;;;10.13;;
32186;SDS011;18686;53.084;8.872;2022-11-11T09:10:09;19.80;;;10.80;;
32186;SDS011;18686;53.084;8.872;2022-11-11T09:12:56;15.30;;;10.27;;
32186;SDS011;18686;53.084;8.872;2022-11-11T09:15:45;21.30;;;10.60;;
32186;SDS011;18686;53.084;8.872;2022-11-11T09:18:32;15.70;;;10.65;;
32186;SDS011;18686;53.084;8.872;2022-11-11T09:21:19;19.52;;;11.25;;
32186;SDS011;18686;53.084;8.872;2022-11-11T09:24:08;17.00;;;10.75;;
32186;SDS011;18686;53.084;8.872;2022-11-11T09:26:55;13.25;;;10.88;;
32186;SDS011;18686;53.084;8.872;2022-11-11T09:29:42;14.77;;;11.13;;
32186;SDS011;18686;53.084;8.872;2022-11-11T09:32:30;17.77;;;10.10;;
32186;SDS011;18686;53.084;8.872;2022-11-11T09:35:17;21.17;;;12.40;;
32186;SDS011;18686;53.084;8.872;2022-11-11T09:38:05;21.85;;;11.38;;
32186;SDS011;18686;53.084;8.872;2022-11-11T09:40:55;17.58;;;11.70;;
32186;SDS011;18686;53.084;8.872;2022-11-11T09:43:53;20.10;;;11.52;;
32186;SDS011;18686;53.084;8.872;2022-11-11T09:46:43;15.68;;;11.55;;
32186;SDS011;18686;53.084;8.872;2022-11-11T09:49:53;15.90;;;10.73;;
32186;SDS011;18686;53.084;8.872;2022-11-11T09:52:46;18.77;;;11.35;;
32186;SDS011;18686;53.084;8.872;2022-11-11T09:55:38;21.10;;;11.35;;
32186;SDS011;18686;53.084;8.872;2022-11-11T09:58:28;14.52;;;9.23;;
32186;SDS011;18686;53.084;8.872;2022-11-11T10:01:20;14.88;;;9.90;;
32186;SDS011;18686;53.084;8.872;2022-11-11T10:04:16;13.52;;;9.85;;
32186;SDS011;18686;53.084;8.872;2022-11-11T10:07:12;10.05;;;8.10;;
32186;SDS011;18686;53.084;8.872;2022-11-11T10:10:16;12.40;;;7.20;;
32186;SDS011;18686;53.084;8.872;2022-11-11T10:13:10;10.38;;;7.57;;
32186;SDS011;18686;53.084;8.872;2022-11-11T10:16:02;12.43;;;8.13;;
32186;SDS011;18686;53.084;8.872;2022-11-11T10:19:01;10.95;;;7.50;;
32186;SDS011;18686;53.084;8.872;2022-11-11T10:21:58;12.93;;;7.15;;
32186;SDS011;18686;53.084;8.872;2022-11-11T10:25:06;11.23;;;7.30;;
32186;SDS011;18686;53.084;8.872;2022-11-11T10:28:01;11.77;;;6.80;;
32186;SDS011;18686;53.084;8.872;2022-11-11T10:30:49;14.05;;;8.18;;
32186;SDS011;18686;53.084;8.872;2022-11-11T10:33:39;10.35;;;7.35;;
32186;SDS011;18686;53.084;8.872;2022-11-11T10:36:31;13.95;;;7.80;;
32186;SDS011;18686;53.084;8.872;2022-11-11T10:39:23;11.55;;;6.80;;
32186;SDS011;18686;53.084;8.872;2022-11-11T10:42:18;14.57;;;6.80;;
32186;SDS011;18686;53.084;8.872;2022-11-11T10:45:07;8.18;;;5.93;;
32186;SDS011;18686;53.084;8.872;2022-11-11T10:48:01;12.52;;;6.60;;
32186;SDS011;18686;53.084;8.872;2022-11-11T10:50:53;7.65;;;5.90;;
32186;SDS011;18686;53.084;8.872;2022-11-11T10:53:47;12.32;;;6.53;;
32186;SDS011;18686;53.084;8.872;2022-11-11T10:56:42;11.00;;;5.82;;
32186;SDS011;18686;53.084;8.872;2022-11-11T10:59:37;8.35;;;6.38;;
32186;SDS011;18686;53.084;8.872;2022-11-11T11:02:29;8.15;;;5.43;;
32186;SDS011;18686;53.084;8.872;2022-11-11T11:05:21;9.02;;;5.75;;
32186;SDS011;18686;53.084;8.872;2022-11-11T11:08:13;8.65;;;5.43;;
32186;SDS011;18686;53.084;8.872;2022-11-11T11:11:03;11.05;;;5.10;;
32186;SDS011;18686;53.084;8.872;2022-11-11T11:13:57;7.72;;;4.53;;
32186;SDS011;18686;53.084;8.872;2022-11-11T11:16:48;8.52;;;4.03;;
32186;SDS011;18686;53.084;8.872;2022-11-11T11:19:40;7.90;;;4.10;;
32186;SDS011;18686;53.084;8.872;2022-11-11T11:22:32;10.23;;;3.97;;
32186;SDS011;18686;53.084;8.872;2022-11-11T11:25:31;5.43;;;2.92;;
32186;SDS011;18686;53.084;8.872;2022-11-11T11:28:18;7.18;;;4.05;;
32186;SDS011;18686;53.084;8.872;2022-11-11T11:31:06;7.90;;;3.35;;
32186;SDS011;18686;53.084;8.872;2022-11-11T11:33:55;7.03;;;3.53;;
32186;SDS011;18686;53.084;8.872;2022-11-11T11:36:43;4.93;;;2.90;;
32186;SDS011;18686;53.084;8.872;2022-11-11T11:39:44;6.60;;;2.60;;
32186;SDS011;18686;53.084;8.872;2022-11-11T11:42:32;5.50;;;2.67;;
32186;SDS011;18686;53.084;8.872;2022-11-11T11:45:20;5.43;;;2.55;;
32186;SDS011;18686;53.084;8.872;2022-11-11T11:48:13;6.80;;;3.38;;
32186;SDS011;18686;53.084;8.872;2022-11-11T11:51:29;5.22;;;2.50;;
32186;SDS011;18686;53.084;8.872;2022-11-11T11:54:25;4.40;;;2.03;;
32186;SDS011;18686;53.084;8.872;2022-11-11T11:57:39;4.25;;;2.13;;
32186;SDS011;18686;53.084;8.872;2022-11-11T12:00:35;5.65;;;2.28;;
32186;SDS011;18686;53.084;8.872;2022-11-11T12:03:37;4.90;;;1.95;;
32186;SDS011;18686;53.084;8.872;2022-11-11T12:06:40;5.85;;;2.38;;
32186;SDS011;18686;53.084;8.872;2022-11-11T12:09:37;6.28;;;2.60;;
32186;SDS011;18686;53.084;8.872;2022-11-11T12:12:34;6.30;;;2.42;;
32186;SDS011;18686;53.084;8.872;2022-11-11T12:15:30;5.85;;;2.33;;
32186;SDS011;18686;53.084;8.872;2022-11-11T12:18:28;6.38;;;2.17;;
32186;SDS011;18686;53.084;8.872;2022-11-11T12:21:25;5.32;;;2.40;;
32186;SDS011;18686;53.084;8.872;2022-11-11T12:24:21;4.68;;;1.95;;
32186;SDS011;18686;53.084;8.872;2022-11-11T12:27:24;5.72;;;2.10;;
32186;SDS011;18686;53.084;8.872;2022-11-11T12:30:19;3.47;;;1.83;;
32186;SDS011;18686;53.084;8.872;2022-11-11T12:33:16;4.45;;;1.90;;
32186;SDS011;18686;53.084;8.872;2022-11-11T12:36:19;4.82;;;1.95;;
32186;SDS011;18686;53.084;8.872;2022-11-11T12:39:21;6.15;;;1.80;;
32186;SDS011;18686;53.084;8.872;2022-11-11T12:42:24;2.95;;;1.80;;
32186;SDS011;18686;53.084;8.872;2022-11-11T12:45:20;4.00;;;1.80;;
32186;SDS011;18686;53.084;8.872;2022-11-11T12:48:14;5.57;;;1.85;;
32186;SDS011;18686;53.084;8.872;2022-11-11T12:51:26;4.57;;;2.00;;
32186;SDS011;18686;53.084;8.872;2022-11-11T12:54:23;3.97;;;2.03;;
32186;SDS011;18686;53.084;8.872;2022-11-11T12:57:21;4.68;;;1.98;;
32186;SDS011;18686;53.084;8.872;2022-11-11T13:00:14;4.35;;;1.80;;
32186;SDS011;18686;53.084;8.872;2022-11-11T13:03:06;5.22;;;2.10;;
32186;SDS011;18686;53.084;8.872;2022-11-11T13:06:09;5.80;;;1.92;;
32186;SDS011;18686;53.084;8.872;2022-11-11T13:09:14;3.95;;;1.77;;
32186;SDS011;18686;53.084;8.872;2022-11-11T13:12:17;5.07;;;2.30;;
32186;SDS011;18686;53.084;8.872;2022-11-11T13:15:10;5.18;;;2.55;;
32186;SDS011;18686;53.084;8.872;2022-11-11T13:18:00;4.22;;;2.08;;
32186;SDS011;18686;53.084;8.872;2022-11-11T13:20:49;6.18;;;1.92;;
32186;SDS011;18686;53.084;8.872;2022-11-11T13:23:42;6.22;;;2.15;;
32186;SDS011;18686;53.084;8.872;2022-11-11T13:26:30;5.55;;;2.13;;
32186;SDS011;18686;53.084;8.872;2022-11-11T13:32:45;4.93;;;2.10;;
32186;SDS011;18686;53.084;8.872;2022-11-11T13:35:37;5.55;;;2.03;;
32186;SDS011;18686;53.084;8.872;2022-11-11T13:38:29;4.63;;;1.75;;
32186;SDS011;18686;53.084;8.872;2022-11-11T13:41:20;4.03;;;2.10;;
32186;SDS011;18686;53.084;8.872;2022-11-11T13:44:16;5.38;;;2.03;;
32186;SDS011;18686;53.084;8.872;2022-11-11T13:47:12;3.33;;;1.88;;
32186;SDS011;18686;53.084;8.872;2022-11-11T13:50:05;4.25;;;2.28;;
32186;SDS011;18686;53.084;8.872;2022-11-11T13:52:58;5.07;;;1.90;;
32186;SDS011;18686;53.084;8.872;2022-11-11T13:55:47;5.78;;;2.35;;
32186;SDS011;18686;53.084;8.872;2022-11-11T13:58:35;4.75;;;2.22;;
32186;SDS011;18686;53.084;8.872;2022-11-11T14:01:30;5.57;;;1.98;;
32186;SDS011;18686;53.084;8.872;2022-11-11T14:04:26;5.53;;;2.53;;
32186;SDS011;18686;53.084;8.872;2022-11-11T14:10:51;6.05;;;2.40;;
32186;SDS011;18686;53.084;8.872;2022-11-11T14:13:40;6.35;;;2.50;;
32186;SDS011;18686;53.084;8.872;2022-11-11T14:19:50;8.05;;;2.40;;
32186;SDS011;18686;53.084;8.872;2022-11-11T14:22:37;5.22;;;2.45;;
32186;SDS011;18686;53.084;8.872;2022-11-11T14:25:24;7.20;;;2.60;;
32186;SDS011;18686;53.084;8.872;2022-11-11T14:28:19;8.00;;;2.53;;
32186;SDS011;18686;53.084;8.872;2022-11-11T14:31:28;6.88;;;2.38;;
32186;SDS011;18686;53.084;8.872;2022-11-11T14:38:14;7.13;;;2.40;;
32186;SDS011;18686;53.084;8.872;2022-11-11T14:44:39;7.60;;;3.05;;
32186;SDS011;18686;53.084;8.872;2022-11-11T14:47:31;4.63;;;2.50;;
32186;SDS011;18686;53.084;8.872;2022-11-11T14:53:30;6.13;;;2.63;;
32186;SDS011;18686;53.084;8.872;2022-11-11T14:56:23;7.85;;;2.40;;
32186;SDS011;18686;53.084;8.872;2022-11-11T14:59:11;8.48;;;2.30;;
32186;SDS011;18686;53.084;8.872;2022-11-11T15:02:01;4.82;;;2.05;;
32186;SDS011;18686;53.084;8.872;2022-11-11T15:04:50;8.35;;;2.60;;
32186;SDS011;18686;53.084;8.872;2022-11-11T15:07:41;6.28;;;2.55;;
32186;SDS011;18686;53.084;8.872;2022-11-11T15:10:42;6.65;;;2.65;;
32186;SDS011;18686;53.084;8.872;2022-11-11T15:13:58;6.53;;;2.33;;
32186;SDS011;18686;53.084;8.872;2022-11-11T15:17:07;7.68;;;3.00;;
32186;SDS011;18686;53.084;8.872;2022-11-11T15:20:07;9.10;;;3.00;;
32186;SDS011;18686;53.084;8.872;2022-11-11T15:23:10;8.52;;;3.08;;
32186;SDS011;18686;53.084;8.872;2022-11-11T15:26:11;8.30;;;3.30;;
32186;SDS011;18686;53.084;8.872;2022-11-11T15:29:09;7.22;;;2.90;;
32186;SDS011;18686;53.084;8.872;2022-11-11T15:32:17;7.40;;;2.90;;
32186;SDS011;18686;53.084;8.872;2022-11-11T15:35:18;6.85;;;2.70;;
32186;SDS011;18686;53.084;8.872;2022-11-11T15:38:13;9.90;;;2.95;;
32186;SDS011;18686;53.084;8.872;2022-11-11T15:41:03;5.88;;;2.28;;
32186;SDS011;18686;53.084;8.872;2022-11-11T15:43:49;9.05;;;2.38;;
32186;SDS011;18686;53.084;8.872;2022-11-11T15:46:39;6.63;;;2.55;;
32186;SDS011;18686;53.084;8.872;2022-11-11T15:49:38;6.75;;;2.60;;
32186;SDS011;18686;53.084;8.872;2022-11-11T15:52:27;9.13;;;3.17;;
32186;SDS011;18686;53.084;8.872;2022-11-11T15:55:21;12.13;;;2.92;;
32186;SDS011;18686;53.084;8.872;2022-11-11T15:58:09;10.30;;;3.30;;
32186;SDS011;18686;53.084;8.872;2022-11-11T16:00:57;8.20;;;3.58;;
32186;SDS011;18686;53.084;8.872;2022-11-11T16:03:48;7.40;;;2.78;;
32186;SDS011;18686;53.084;8.872;2022-11-11T16:06:35;5.82;;;2.97;;
32186;SDS011;18686;53.084;8.872;2022-11-11T16:09:23;11.32;;;3.38;;
32186;SDS011;18686;53.084;8.872;2022-11-11T16:12:18;9.13;;;3.50;;
32186;SDS011;18686;53.084;8.872;2022-11-11T16:15:09;5.80;;;3.30;;
32186;SDS011;18686;53.084;8.872;2022-11-11T16:18:04;7.22;;;3.08;;
32186;SDS011;18686;53.084;8.872;2022-11-11T16:20:57;10.68;;;4.30;;
32186;SDS011;18686;53.084;8.872;2022-11-11T16:23:48;10.40;;;3.42;;
32186;SDS011;18686;53.084;8.872;2022-11-11T16:26:36;10.10;;;4.50;;
32186;SDS011;18686;53.084;8.872;2022-11-11T16:29:26;15.13;;;4.03;;
32186;SDS011;18686;53.084;8.872;2022-11-11T16:32:17;8.73;;;3.40;;
32186;SDS011;18686;53.084;8.872;2022-11-11T16:35:22;8.40;;;3.58;;
32186;SDS011;18686;53.084;8.872;2022-11-11T16:38:10;11.70;;;4.03;;
32186;SDS011;18686;53.084;8.872;2022-11-11T16:40:57;11.10;;;4.00;;
32186;SDS011;18686;53.084;8.872;2022-11-11T16:43:43;9.52;;;3.60;;
